sensor_id;sensor_type;location;lat;lon;timestamp;P1;durP1;ratioP1;P2;durP2;ratioP2
37407;SDS011;24866;50.248;8.252;2024-02-21T00:01:33;15.07;;;5.70;;
37407;SDS011;24866;50.248;8.252;2024-02-21T00:04:03;18.63;;;6.72;;
37407;SDS011;24866;50.248;8.252;2024-02-21T00:06:35;15.30;;;5.20;;
37407;SDS011;24866;50.248;8.252;2024-02-21T00:09:05;15.88;;;6.45;;
37407;SDS011;24866;50.248;8.252;2024-02-21T00:11:37;20.20;;;5.30;;
37407;SDS011;24866;50.248;8.252;2024-02-21T00:14:07;20.77;;;5.90;;
37407;SDS011;24866;50.248;8.252;2024-02-21T00:16:37;15.75;;;5.80;;
37407;SDS011;24866;50.248;8.252;2024-02-21T00:19:08;12.88;;;5.60;;
37407;SDS011;24866;50.248;8.252;2024-02-21T00:21:39;15.00;;;4.95;;
37407;SDS011;24866;50.248;8.252;2024-02-21T00:24:09;14.40;;;4.70;;
37407;SDS011;24866;50.248;8.252;2024-02-21T00:26:39;15.52;;;6.88;;
37407;SDS011;24866;50.248;8.252;2024-02-21T00:29:09;15.60;;;5.40;;
37407;SDS011;24866;50.248;8.252;2024-02-21T00:31:39;15.68;;;4.78;;
37407;SDS011;24866;50.248;8.252;2024-02-21T00:34:10;13.63;;;5.32;;
37407;SDS011;24866;50.248;8.252;2024-02-21T00:36:42;10.80;;;5.70;;
37407;SDS011;24866;50.248;8.252;2024-02-21T00:39:12;11.13;;;5.40;;
37407;SDS011;24866;50.248;8.252;2024-02-21T00:41:42;14.82;;;5.30;;
37407;SDS011;24866;50.248;8.252;2024-02-21T00:44:12;14.70;;;5.10;;
37407;SDS011;24866;50.248;8.252;2024-02-21T00:46:43;16.98;;;5.63;;
37407;SDS011;24866;50.248;8.252;2024-02-21T00:49:14;13.15;;;5.47;;
37407;SDS011;24866;50.248;8.252;2024-02-21T00:51:46;18.83;;;6.68;;
37407;SDS011;24866;50.248;8.252;2024-02-21T00:54:16;22.55;;;6.22;;
37407;SDS011;24866;50.248;8.252;2024-02-21T00:56:46;13.77;;;4.57;;
37407;SDS011;24866;50.248;8.252;2024-02-21T00:59:16;13.57;;;5.55;;
37407;SDS011;24866;50.248;8.252;2024-02-21T01:01:46;16.85;;;5.55;;
37407;SDS011;24866;50.248;8.252;2024-02-21T01:04:16;18.50;;;5.80;;
37407;SDS011;24866;50.248;8.252;2024-02-21T01:06:48;13.32;;;4.97;;
37407;SDS011;24866;50.248;8.252;2024-02-21T01:09:18;11.52;;;4.85;;
37407;SDS011;24866;50.248;8.252;2024-02-21T01:11:48;21.38;;;5.68;;
37407;SDS011;24866;50.248;8.252;2024-02-21T01:14:18;12.50;;;4.85;;
37407;SDS011;24866;50.248;8.252;2024-02-21T01:16:49;12.50;;;5.07;;
37407;SDS011;24866;50.248;8.252;2024-02-21T01:19:19;15.27;;;5.68;;
37407;SDS011;24866;50.248;8.252;2024-02-21T01:21:50;14.13;;;6.13;;
37407;SDS011;24866;50.248;8.252;2024-02-21T01:24:23;16.27;;;5.95;;
37407;SDS011;24866;50.248;8.252;2024-02-21T01:26:53;14.80;;;5.85;;
37407;SDS011;24866;50.248;8.252;2024-02-21T01:29:24;13.23;;;5.70;;
37407;SDS011;24866;50.248;8.252;2024-02-21T01:31:54;13.45;;;4.45;;
37407;SDS011;24866;50.248;8.252;2024-02-21T01:34:24;15.90;;;5.90;;
37407;SDS011;24866;50.248;8.252;2024-02-21T01:36:56;17.35;;;6.57;;
37407;SDS011;24866;50.248;8.252;2024-02-21T01:41:57;14.77;;;5.55;;
37407;SDS011;24866;50.248;8.252;2024-02-21T01:44:27;14.70;;;5.55;;
37407;SDS011;24866;50.248;8.252;2024-02-21T01:46:57;14.02;;;5.50;;
37407;SDS011;24866;50.248;8.252;2024-02-21T01:49:27;12.85;;;4.88;;
37407;SDS011;24866;50.248;8.252;2024-02-21T01:51:59;14.38;;;4.75;;
37407;SDS011;24866;50.248;8.252;2024-02-21T01:54:29;17.65;;;5.55;;
37407;SDS011;24866;50.248;8.252;2024-02-21T01:57:01;11.27;;;4.47;;
37407;SDS011;24866;50.248;8.252;2024-02-21T01:59:31;15.55;;;6.32;;
37407;SDS011;24866;50.248;8.252;2024-02-21T02:02:01;19.17;;;5.75;;
37407;SDS011;24866;50.248;8.252;2024-02-21T02:04:32;11.23;;;5.38;;
37407;SDS011;24866;50.248;8.252;2024-02-21T02:07:03;17.75;;;5.90;;
37407;SDS011;24866;50.248;8.252;2024-02-21T02:09:35;12.15;;;5.00;;
37407;SDS011;24866;50.248;8.252;2024-02-21T02:12:05;12.32;;;5.30;;
37407;SDS011;24866;50.248;8.252;2024-02-21T02:14:35;16.77;;;6.05;;
37407;SDS011;24866;50.248;8.252;2024-02-21T02:17:05;12.55;;;4.82;;
37407;SDS011;24866;50.248;8.252;2024-02-21T02:19:37;11.77;;;4.90;;
37407;SDS011;24866;50.248;8.252;2024-02-21T02:22:09;13.70;;;5.90;;
37407;SDS011;24866;50.248;8.252;2024-02-21T02:24:42;16.27;;;5.38;;
37407;SDS011;24866;50.248;8.252;2024-02-21T02:27:16;16.77;;;6.43;;
37407;SDS011;24866;50.248;8.252;2024-02-21T02:29:46;18.10;;;5.00;;
37407;SDS011;24866;50.248;8.252;2024-02-21T02:32:16;14.02;;;4.70;;
37407;SDS011;24866;50.248;8.252;2024-02-21T02:34:46;10.40;;;4.22;;
37407;SDS011;24866;50.248;8.252;2024-02-21T02:37:16;17.40;;;5.20;;
37407;SDS011;24866;50.248;8.252;2024-02-21T02:39:48;13.57;;;4.53;;
37407;SDS011;24866;50.248;8.252;2024-02-21T02:42:18;13.57;;;4.70;;
37407;SDS011;24866;50.248;8.252;2024-02-21T02:44:48;13.70;;;4.07;;
37407;SDS011;24866;50.248;8.252;2024-02-21T02:47:18;15.30;;;4.90;;
37407;SDS011;24866;50.248;8.252;2024-02-21T02:49:48;13.32;;;4.65;;
37407;SDS011;24866;50.248;8.252;2024-02-21T02:52:19;10.88;;;3.83;;
37407;SDS011;24866;50.248;8.252;2024-02-21T02:54:50;17.27;;;5.60;;
37407;SDS011;24866;50.248;8.252;2024-02-21T02:57:23;14.15;;;5.45;;
37407;SDS011;24866;50.248;8.252;2024-02-21T02:59:53;12.77;;;4.72;;
37407;SDS011;24866;50.248;8.252;2024-02-21T03:02:23;13.18;;;5.55;;
37407;SDS011;24866;50.248;8.252;2024-02-21T03:04:53;12.55;;;4.88;;
37407;SDS011;24866;50.248;8.252;2024-02-21T03:07:24;11.13;;;4.35;;
37407;SDS011;24866;50.248;8.252;2024-02-21T03:09:56;16.77;;;4.68;;
37407;SDS011;24866;50.248;8.252;2024-02-21T03:12:25;17.45;;;4.93;;
37407;SDS011;24866;50.248;8.252;2024-02-21T03:14:57;13.05;;;5.22;;
37407;SDS011;24866;50.248;8.252;2024-02-21T03:17:27;13.50;;;4.80;;
37407;SDS011;24866;50.248;8.252;2024-02-21T03:19:57;12.52;;;5.22;;
37407;SDS011;24866;50.248;8.252;2024-02-21T03:22:27;11.98;;;4.95;;
37407;SDS011;24866;50.248;8.252;2024-02-21T03:24:58;17.75;;;6.13;;
37407;SDS011;24866;50.248;8.252;2024-02-21T03:27:27;13.80;;;4.43;;
37407;SDS011;24866;50.248;8.252;2024-02-21T03:29:57;12.85;;;4.45;;
37407;SDS011;24866;50.248;8.252;2024-02-21T03:32:27;12.52;;;4.97;;
37407;SDS011;24866;50.248;8.252;2024-02-21T03:34:57;17.17;;;6.05;;
37407;SDS011;24866;50.248;8.252;2024-02-21T03:37:27;13.43;;;5.03;;
37407;SDS011;24866;50.248;8.252;2024-02-21T03:39:58;13.70;;;4.50;;
37407;SDS011;24866;50.248;8.252;2024-02-21T03:42:28;15.13;;;4.57;;
37407;SDS011;24866;50.248;8.252;2024-02-21T03:44:59;18.45;;;5.22;;
37407;SDS011;24866;50.248;8.252;2024-02-21T03:47:29;12.25;;;4.57;;
37407;SDS011;24866;50.248;8.252;2024-02-21T03:49:59;12.40;;;5.00;;
37407;SDS011;24866;50.248;8.252;2024-02-21T03:52:29;16.17;;;5.60;;
37407;SDS011;24866;50.248;8.252;2024-02-21T03:55:00;14.02;;;5.63;;
37407;SDS011;24866;50.248;8.252;2024-02-21T03:57:30;13.68;;;4.82;;
37407;SDS011;24866;50.248;8.252;2024-02-21T03:59:59;13.48;;;4.78;;
37407;SDS011;24866;50.248;8.252;2024-02-21T04:02:29;13.95;;;5.20;;
37407;SDS011;24866;50.248;8.252;2024-02-21T04:04:59;11.50;;;5.25;;
37407;SDS011;24866;50.248;8.252;2024-02-21T04:07:29;11.85;;;5.05;;
37407;SDS011;24866;50.248;8.252;2024-02-21T04:10:00;11.02;;;4.00;;
37407;SDS011;24866;50.248;8.252;2024-02-21T04:12:30;14.45;;;4.68;;
37407;SDS011;24866;50.248;8.252;2024-02-21T04:14:59;12.52;;;5.15;;
37407;SDS011;24866;50.248;8.252;2024-02-21T04:17:29;15.38;;;5.07;;
37407;SDS011;24866;50.248;8.252;2024-02-21T04:20:01;10.80;;;4.57;;
37407;SDS011;24866;50.248;8.252;2024-02-21T04:22:33;11.15;;;4.97;;
37407;SDS011;24866;50.248;8.252;2024-02-21T04:25:05;12.70;;;4.85;;
37407;SDS011;24866;50.248;8.252;2024-02-21T04:27:35;15.00;;;4.88;;
37407;SDS011;24866;50.248;8.252;2024-02-21T04:30:06;12.95;;;4.57;;
37407;SDS011;24866;50.248;8.252;2024-02-21T04:32:36;15.23;;;5.43;;
37407;SDS011;24866;50.248;8.252;2024-02-21T04:35:06;17.27;;;4.85;;
37407;SDS011;24866;50.248;8.252;2024-02-21T04:37:36;16.48;;;5.22;;
37407;SDS011;24866;50.248;8.252;2024-02-21T04:40:08;18.60;;;5.25;;
37407;SDS011;24866;50.248;8.252;2024-02-21T04:42:39;13.30;;;4.45;;
37407;SDS011;24866;50.248;8.252;2024-02-21T04:45:09;10.65;;;4.72;;
37407;SDS011;24866;50.248;8.252;2024-02-21T04:47:39;15.50;;;4.32;;
37407;SDS011;24866;50.248;8.252;2024-02-21T04:50:10;12.18;;;4.90;;
37407;SDS011;24866;50.248;8.252;2024-02-21T04:52:40;13.15;;;4.88;;
37407;SDS011;24866;50.248;8.252;2024-02-21T04:55:12;15.40;;;5.05;;
37407;SDS011;24866;50.248;8.252;2024-02-21T04:57:42;10.13;;;4.28;;
37407;SDS011;24866;50.248;8.252;2024-02-21T05:00:13;15.55;;;4.88;;
37407;SDS011;24866;50.248;8.252;2024-02-21T05:02:43;11.50;;;4.63;;
37407;SDS011;24866;50.248;8.252;2024-02-21T05:05:13;12.20;;;4.15;;
37407;SDS011;24866;50.248;8.252;2024-02-21T05:07:45;10.13;;;5.07;;
37407;SDS011;24866;50.248;8.252;2024-02-21T05:10:16;12.32;;;4.72;;
37407;SDS011;24866;50.248;8.252;2024-02-21T05:12:47;9.75;;;4.57;;
37407;SDS011;24866;50.248;8.252;2024-02-21T05:15:17;12.00;;;4.43;;
37407;SDS011;24866;50.248;8.252;2024-02-21T05:17:47;16.98;;;5.30;;
37407;SDS011;24866;50.248;8.252;2024-02-21T05:20:17;12.00;;;4.68;;
37407;SDS011;24866;50.248;8.252;2024-02-21T05:22:47;10.82;;;3.95;;
37407;SDS011;24866;50.248;8.252;2024-02-21T05:25:19;10.98;;;4.28;;
37407;SDS011;24866;50.248;8.252;2024-02-21T05:27:50;11.00;;;4.00;;
37407;SDS011;24866;50.248;8.252;2024-02-21T05:30:21;14.65;;;4.22;;
37407;SDS011;24866;50.248;8.252;2024-02-21T05:32:52;14.43;;;4.90;;
37407;SDS011;24866;50.248;8.252;2024-02-21T05:35:24;13.15;;;4.68;;
37407;SDS011;24866;50.248;8.252;2024-02-21T05:37:54;14.75;;;4.60;;
37407;SDS011;24866;50.248;8.252;2024-02-21T05:40:26;10.45;;;4.78;;
37407;SDS011;24866;50.248;8.252;2024-02-21T05:42:56;13.38;;;5.72;;
37407;SDS011;24866;50.248;8.252;2024-02-21T05:45:26;17.73;;;5.15;;
37407;SDS011;24866;50.248;8.252;2024-02-21T05:47:56;17.67;;;5.72;;
37407;SDS011;24866;50.248;8.252;2024-02-21T05:50:26;16.83;;;6.57;;
37407;SDS011;24866;50.248;8.252;2024-02-21T05:52:57;14.23;;;5.93;;
37407;SDS011;24866;50.248;8.252;2024-02-21T05:55:28;12.88;;;5.45;;
37407;SDS011;24866;50.248;8.252;2024-02-21T05:57:58;14.50;;;5.65;;
37407;SDS011;24866;50.248;8.252;2024-02-21T06:00:28;12.27;;;5.40;;
37407;SDS011;24866;50.248;8.252;2024-02-21T06:02:59;12.65;;;5.13;;
37407;SDS011;24866;50.248;8.252;2024-02-21T06:05:30;12.52;;;4.65;;
37407;SDS011;24866;50.248;8.252;2024-02-21T06:08:01;12.55;;;4.68;;
37407;SDS011;24866;50.248;8.252;2024-02-21T06:10:33;12.05;;;4.93;;
37407;SDS011;24866;50.248;8.252;2024-02-21T06:13:03;16.15;;;5.28;;
37407;SDS011;24866;50.248;8.252;2024-02-21T06:15:33;14.13;;;5.40;;
37407;SDS011;24866;50.248;8.252;2024-02-21T06:18:04;14.52;;;5.22;;
37407;SDS011;24866;50.248;8.252;2024-02-21T06:20:34;15.30;;;6.95;;
37407;SDS011;24866;50.248;8.252;2024-02-21T06:23:07;20.85;;;9.77;;
37407;SDS011;24866;50.248;8.252;2024-02-21T06:25:39;19.15;;;8.93;;
37407;SDS011;24866;50.248;8.252;2024-02-21T06:28:09;31.98;;;12.55;;
37407;SDS011;24866;50.248;8.252;2024-02-21T06:30:39;17.33;;;7.95;;
37407;SDS011;24866;50.248;8.252;2024-02-21T06:33:10;21.70;;;8.73;;
37407;SDS011;24866;50.248;8.252;2024-02-21T06:35:40;17.27;;;6.45;;
37407;SDS011;24866;50.248;8.252;2024-02-21T06:38:11;16.08;;;6.20;;
37407;SDS011;24866;50.248;8.252;2024-02-21T06:40:41;12.07;;;6.30;;
37407;SDS011;24866;50.248;8.252;2024-02-21T06:43:17;13.32;;;7.53;;
37407;SDS011;24866;50.248;8.252;2024-02-21T06:45:48;14.85;;;5.55;;
37407;SDS011;24866;50.248;8.252;2024-02-21T06:48:19;16.52;;;6.25;;
37407;SDS011;24866;50.248;8.252;2024-02-21T06:50:49;12.25;;;5.70;;
37407;SDS011;24866;50.248;8.252;2024-02-21T06:53:19;17.10;;;5.97;;
37407;SDS011;24866;50.248;8.252;2024-02-21T06:55:51;8.98;;;5.00;;
37407;SDS011;24866;50.248;8.252;2024-02-21T06:58:21;17.90;;;6.13;;
37407;SDS011;24866;50.248;8.252;2024-02-21T07:00:52;15.80;;;6.93;;
37407;SDS011;24866;50.248;8.252;2024-02-21T07:03:22;17.25;;;8.15;;
37407;SDS011;24866;50.248;8.252;2024-02-21T07:05:53;17.70;;;7.38;;
37407;SDS011;24866;50.248;8.252;2024-02-21T07:08:23;16.10;;;6.03;;
37407;SDS011;24866;50.248;8.252;2024-02-21T07:10:54;12.93;;;5.75;;
37407;SDS011;24866;50.248;8.252;2024-02-21T07:13:25;13.43;;;4.63;;
37407;SDS011;24866;50.248;8.252;2024-02-21T07:15:55;17.15;;;5.85;;
37407;SDS011;24866;50.248;8.252;2024-02-21T07:18:25;16.02;;;5.10;;
37407;SDS011;24866;50.248;8.252;2024-02-21T07:20:55;11.00;;;5.13;;
37407;SDS011;24866;50.248;8.252;2024-02-21T07:23:26;14.15;;;6.47;;
37407;SDS011;24866;50.248;8.252;2024-02-21T07:25:58;15.85;;;6.07;;
37407;SDS011;24866;50.248;8.252;2024-02-21T07:28:28;16.27;;;5.30;;
37407;SDS011;24866;50.248;8.252;2024-02-21T07:30:58;13.02;;;5.07;;
37407;SDS011;24866;50.248;8.252;2024-02-21T07:33:29;16.55;;;6.10;;
37407;SDS011;24866;50.248;8.252;2024-02-21T07:36:00;12.45;;;6.88;;
37407;SDS011;24866;50.248;8.252;2024-02-21T07:38:31;13.52;;;5.70;;
37407;SDS011;24866;50.248;8.252;2024-02-21T07:41:02;11.05;;;5.45;;
37407;SDS011;24866;50.248;8.252;2024-02-21T07:43:33;10.13;;;5.75;;
37407;SDS011;24866;50.248;8.252;2024-02-21T07:46:03;11.60;;;5.57;;
37407;SDS011;24866;50.248;8.252;2024-02-21T07:48:33;15.20;;;6.60;;
37407;SDS011;24866;50.248;8.252;2024-02-21T07:51:04;12.20;;;5.47;;
37407;SDS011;24866;50.248;8.252;2024-02-21T07:53:34;13.55;;;5.53;;
37407;SDS011;24866;50.248;8.252;2024-02-21T07:56:06;10.15;;;4.72;;
37407;SDS011;24866;50.248;8.252;2024-02-21T07:58:36;15.82;;;5.75;;
37407;SDS011;24866;50.248;8.252;2024-02-21T08:01:06;17.45;;;5.75;;
37407;SDS011;24866;50.248;8.252;2024-02-21T08:03:36;18.45;;;5.97;;
37407;SDS011;24866;50.248;8.252;2024-02-21T08:06:11;12.52;;;4.70;;
37407;SDS011;24866;50.248;8.252;2024-02-21T08:08:41;11.73;;;4.35;;
37407;SDS011;24866;50.248;8.252;2024-02-21T08:11:13;12.68;;;5.32;;
37407;SDS011;24866;50.248;8.252;2024-02-21T08:13:43;17.10;;;4.50;;
37407;SDS011;24866;50.248;8.252;2024-02-21T08:16:14;13.23;;;4.70;;
37407;SDS011;24866;50.248;8.252;2024-02-21T08:18:44;12.25;;;5.30;;
37407;SDS011;24866;50.248;8.252;2024-02-21T08:21:14;18.45;;;6.00;;
37407;SDS011;24866;50.248;8.252;2024-02-21T08:23:45;12.30;;;6.15;;
37407;SDS011;24866;50.248;8.252;2024-02-21T08:26:21;14.27;;;6.25;;
37407;SDS011;24866;50.248;8.252;2024-02-21T08:28:51;11.73;;;4.70;;
37407;SDS011;24866;50.248;8.252;2024-02-21T08:31:21;11.80;;;4.55;;
37407;SDS011;24866;50.248;8.252;2024-02-21T08:33:52;15.35;;;5.50;;
37407;SDS011;24866;50.248;8.252;2024-02-21T08:36:24;11.10;;;5.07;;
37407;SDS011;24866;50.248;8.252;2024-02-21T08:38:55;13.80;;;4.55;;
37407;SDS011;24866;50.248;8.252;2024-02-21T08:41:26;11.02;;;4.32;;
37407;SDS011;24866;50.248;8.252;2024-02-21T08:43:57;14.68;;;4.57;;
37407;SDS011;24866;50.248;8.252;2024-02-21T08:46:27;12.98;;;4.72;;
37407;SDS011;24866;50.248;8.252;2024-02-21T08:48:58;17.45;;;4.32;;
37407;SDS011;24866;50.248;8.252;2024-02-21T08:51:28;12.45;;;3.90;;
37407;SDS011;24866;50.248;8.252;2024-02-21T08:53:58;9.68;;;4.20;;
37407;SDS011;24866;50.248;8.252;2024-02-21T08:56:31;14.85;;;4.07;;
37407;SDS011;24866;50.248;8.252;2024-02-21T08:59:02;11.15;;;3.92;;
37407;SDS011;24866;50.248;8.252;2024-02-21T09:01:32;14.23;;;4.75;;
37407;SDS011;24866;50.248;8.252;2024-02-21T09:04:03;14.93;;;4.95;;
37407;SDS011;24866;50.248;8.252;2024-02-21T09:06:34;12.55;;;3.72;;
37407;SDS011;24866;50.248;8.252;2024-02-21T09:09:07;13.40;;;4.40;;
37407;SDS011;24866;50.248;8.252;2024-02-21T09:11:39;13.55;;;5.72;;
37407;SDS011;24866;50.248;8.252;2024-02-21T09:14:09;11.70;;;4.50;;
37407;SDS011;24866;50.248;8.252;2024-02-21T09:16:40;11.98;;;5.00;;
37407;SDS011;24866;50.248;8.252;2024-02-21T09:19:10;12.57;;;4.82;;
37407;SDS011;24866;50.248;8.252;2024-02-21T09:21:41;12.93;;;4.22;;
37407;SDS011;24866;50.248;8.252;2024-02-21T09:24:11;13.63;;;4.40;;
37407;SDS011;24866;50.248;8.252;2024-02-21T09:26:43;13.15;;;4.13;;
37407;SDS011;24866;50.248;8.252;2024-02-21T09:29:14;16.52;;;4.15;;
37407;SDS011;24866;50.248;8.252;2024-02-21T09:31:44;10.23;;;3.63;;
37407;SDS011;24866;50.248;8.252;2024-02-21T09:34:17;13.35;;;4.50;;
37407;SDS011;24866;50.248;8.252;2024-02-21T09:36:47;9.00;;;3.38;;
37407;SDS011;24866;50.248;8.252;2024-02-21T09:39:17;12.93;;;4.30;;
37407;SDS011;24866;50.248;8.252;2024-02-21T09:41:50;9.73;;;3.60;;
37407;SDS011;24866;50.248;8.252;2024-02-21T09:44:23;11.45;;;4.03;;
37407;SDS011;24866;50.248;8.252;2024-02-21T09:46:55;14.10;;;4.28;;
37407;SDS011;24866;50.248;8.252;2024-02-21T09:49:29;10.73;;;4.00;;
37407;SDS011;24866;50.248;8.252;2024-02-21T09:52:01;13.63;;;4.00;;
37407;SDS011;24866;50.248;8.252;2024-02-21T09:54:32;12.40;;;3.80;;
37407;SDS011;24866;50.248;8.252;2024-02-21T09:57:04;10.32;;;3.25;;
37407;SDS011;24866;50.248;8.252;2024-02-21T09:59:34;16.13;;;4.53;;
37407;SDS011;24866;50.248;8.252;2024-02-21T10:02:05;11.10;;;3.25;;
37407;SDS011;24866;50.248;8.252;2024-02-21T10:04:35;11.50;;;3.83;;
37407;SDS011;24866;50.248;8.252;2024-02-21T10:07:06;14.57;;;3.70;;
37407;SDS011;24866;50.248;8.252;2024-02-21T10:09:37;8.70;;;3.30;;
37407;SDS011;24866;50.248;8.252;2024-02-21T10:12:10;14.65;;;3.83;;
37407;SDS011;24866;50.248;8.252;2024-02-21T10:14:41;11.15;;;3.80;;
37407;SDS011;24866;50.248;8.252;2024-02-21T10:17:15;13.23;;;4.30;;
37407;SDS011;24866;50.248;8.252;2024-02-21T10:19:47;13.02;;;4.32;;
37407;SDS011;24866;50.248;8.252;2024-02-21T10:22:18;15.45;;;5.85;;
37407;SDS011;24866;50.248;8.252;2024-02-21T10:24:49;14.73;;;5.57;;
37407;SDS011;24866;50.248;8.252;2024-02-21T10:27:23;10.95;;;4.65;;
37407;SDS011;24866;50.248;8.252;2024-02-21T10:29:53;12.60;;;5.75;;
37407;SDS011;24866;50.248;8.252;2024-02-21T10:32:23;15.88;;;5.35;;
37407;SDS011;24866;50.248;8.252;2024-02-21T10:35:00;13.60;;;6.18;;
37407;SDS011;24866;50.248;8.252;2024-02-21T10:37:31;16.92;;;5.82;;
37407;SDS011;24866;50.248;8.252;2024-02-21T10:40:01;15.52;;;5.53;;
37407;SDS011;24866;50.248;8.252;2024-02-21T10:42:34;13.82;;;6.00;;
37407;SDS011;24866;50.248;8.252;2024-02-21T10:47:36;15.00;;;6.55;;
37407;SDS011;24866;50.248;8.252;2024-02-21T10:50:08;12.00;;;5.50;;
37407;SDS011;24866;50.248;8.252;2024-02-21T10:52:43;10.52;;;5.60;;
37407;SDS011;24866;50.248;8.252;2024-02-21T10:55:16;18.10;;;6.40;;
37407;SDS011;24866;50.248;8.252;2024-02-21T10:57:52;13.02;;;5.78;;
37407;SDS011;24866;50.248;8.252;2024-02-21T11:00:22;14.23;;;6.07;;
37407;SDS011;24866;50.248;8.252;2024-02-21T11:02:58;14.13;;;6.32;;
37407;SDS011;24866;50.248;8.252;2024-02-21T11:05:29;12.05;;;6.07;;
37407;SDS011;24866;50.248;8.252;2024-02-21T11:08:00;16.67;;;5.53;;
37407;SDS011;24866;50.248;8.252;2024-02-21T11:10:31;13.55;;;6.03;;
37407;SDS011;24866;50.248;8.252;2024-02-21T11:13:07;14.52;;;6.95;;
37407;SDS011;24866;50.248;8.252;2024-02-21T11:15:38;13.77;;;6.10;;
37407;SDS011;24866;50.248;8.252;2024-02-21T11:18:08;14.70;;;5.95;;
37407;SDS011;24866;50.248;8.252;2024-02-21T11:20:38;12.98;;;5.78;;
37407;SDS011;24866;50.248;8.252;2024-02-21T11:23:08;18.23;;;7.90;;
37407;SDS011;24866;50.248;8.252;2024-02-21T11:25:39;12.23;;;5.53;;
37407;SDS011;24866;50.248;8.252;2024-02-21T11:28:11;13.75;;;6.93;;
37407;SDS011;24866;50.248;8.252;2024-02-21T11:30:41;10.48;;;5.80;;
37407;SDS011;24866;50.248;8.252;2024-02-21T11:33:12;10.57;;;5.25;;
37407;SDS011;24866;50.248;8.252;2024-02-21T11:35:42;14.68;;;5.97;;
37407;SDS011;24866;50.248;8.252;2024-02-21T11:38:13;12.10;;;5.05;;
37407;SDS011;24866;50.248;8.252;2024-02-21T11:40:44;13.30;;;4.88;;
37407;SDS011;24866;50.248;8.252;2024-02-21T11:43:16;12.27;;;5.75;;
37407;SDS011;24866;50.248;8.252;2024-02-21T11:45:47;13.32;;;6.10;;
37407;SDS011;24866;50.248;8.252;2024-02-21T11:48:17;12.07;;;5.75;;
37407;SDS011;24866;50.248;8.252;2024-02-21T11:50:52;13.02;;;5.78;;
37407;SDS011;24866;50.248;8.252;2024-02-21T11:53:23;14.18;;;5.90;;
37407;SDS011;24866;50.248;8.252;2024-02-21T11:55:58;14.38;;;5.95;;
37407;SDS011;24866;50.248;8.252;2024-02-21T11:58:31;14.32;;;5.60;;
37407;SDS011;24866;50.248;8.252;2024-02-21T12:01:02;16.15;;;5.60;;
37407;SDS011;24866;50.248;8.252;2024-02-21T12:03:32;17.00;;;5.90;;
37407;SDS011;24866;50.248;8.252;2024-02-21T12:06:03;16.25;;;5.55;;
37407;SDS011;24866;50.248;8.252;2024-02-21T12:08:42;10.38;;;5.25;;
37407;SDS011;24866;50.248;8.252;2024-02-21T12:11:19;9.30;;;4.85;;
37407;SDS011;24866;50.248;8.252;2024-02-21T12:14:01;9.05;;;4.60;;
37407;SDS011;24866;50.248;8.252;2024-02-21T12:16:32;11.55;;;4.53;;
37407;SDS011;24866;50.248;8.252;2024-02-21T12:19:04;14.93;;;5.55;;
37407;SDS011;24866;50.248;8.252;2024-02-21T12:21:35;8.80;;;3.92;;
37407;SDS011;24866;50.248;8.252;2024-02-21T12:24:12;9.10;;;3.72;;
37407;SDS011;24866;50.248;8.252;2024-02-21T12:26:43;12.60;;;3.95;;
37407;SDS011;24866;50.248;8.252;2024-02-21T12:29:14;11.55;;;4.60;;
37407;SDS011;24866;50.248;8.252;2024-02-21T12:31:44;8.90;;;3.70;;
37407;SDS011;24866;50.248;8.252;2024-02-21T12:34:15;10.45;;;4.03;;
37407;SDS011;24866;50.248;8.252;2024-02-21T12:36:46;8.43;;;3.78;;
37407;SDS011;24866;50.248;8.252;2024-02-21T12:39:16;7.43;;;3.83;;
37407;SDS011;24866;50.248;8.252;2024-02-21T12:41:46;14.43;;;4.10;;
37407;SDS011;24866;50.248;8.252;2024-02-21T12:44:19;13.48;;;4.10;;
37407;SDS011;24866;50.248;8.252;2024-02-21T12:46:49;10.37;;;4.70;;
37407;SDS011;24866;50.248;8.252;2024-02-21T12:49:22;10.38;;;4.60;;
37407;SDS011;24866;50.248;8.252;2024-02-21T12:51:53;12.85;;;4.70;;
37407;SDS011;24866;50.248;8.252;2024-02-21T12:54:23;14.23;;;4.88;;
37407;SDS011;24866;50.248;8.252;2024-02-21T12:56:54;12.45;;;5.60;;
37407;SDS011;24866;50.248;8.252;2024-02-21T12:59:25;9.63;;;4.38;;
37407;SDS011;24866;50.248;8.252;2024-02-21T13:01:56;15.90;;;5.90;;
37407;SDS011;24866;50.248;8.252;2024-02-21T13:04:26;11.43;;;4.40;;
37407;SDS011;24866;50.248;8.252;2024-02-21T13:06:57;11.32;;;4.35;;
37407;SDS011;24866;50.248;8.252;2024-02-21T13:09:27;10.93;;;5.07;;
37407;SDS011;24866;50.248;8.252;2024-02-21T13:11:58;11.48;;;4.10;;
37407;SDS011;24866;50.248;8.252;2024-02-21T13:14:29;8.60;;;4.07;;
37407;SDS011;24866;50.248;8.252;2024-02-21T13:17:01;16.98;;;4.75;;
37407;SDS011;24866;50.248;8.252;2024-02-21T13:19:31;11.48;;;3.65;;
37407;SDS011;24866;50.248;8.252;2024-02-21T13:22:02;10.98;;;3.60;;
37407;SDS011;24866;50.248;8.252;2024-02-21T13:24:32;10.35;;;3.83;;
37407;SDS011;24866;50.248;8.252;2024-02-21T13:27:02;9.40;;;3.13;;
37407;SDS011;24866;50.248;8.252;2024-02-21T13:29:34;10.35;;;3.38;;
37407;SDS011;24866;50.248;8.252;2024-02-21T13:32:05;11.20;;;3.67;;
37407;SDS011;24866;50.248;8.252;2024-02-21T13:34:36;13.65;;;3.45;;
37407;SDS011;24866;50.248;8.252;2024-02-21T13:37:06;16.88;;;5.00;;
37407;SDS011;24866;50.248;8.252;2024-02-21T13:39:38;9.32;;;3.40;;
37407;SDS011;24866;50.248;8.252;2024-02-21T13:42:08;11.00;;;3.92;;
37407;SDS011;24866;50.248;8.252;2024-02-21T13:44:40;8.77;;;3.05;;
37407;SDS011;24866;50.248;8.252;2024-02-21T13:47:11;9.88;;;3.10;;
37407;SDS011;24866;50.248;8.252;2024-02-21T13:49:43;12.88;;;4.00;;
37407;SDS011;24866;50.248;8.252;2024-02-21T13:52:13;11.95;;;4.03;;
37407;SDS011;24866;50.248;8.252;2024-02-21T13:54:45;9.20;;;2.85;;
37407;SDS011;24866;50.248;8.252;2024-02-21T13:57:15;12.35;;;3.95;;
37407;SDS011;24866;50.248;8.252;2024-02-21T13:59:46;11.73;;;3.60;;
37407;SDS011;24866;50.248;8.252;2024-02-21T14:02:16;10.27;;;3.00;;
37407;SDS011;24866;50.248;8.252;2024-02-21T14:04:47;7.75;;;3.45;;
37407;SDS011;24866;50.248;8.252;2024-02-21T14:07:17;10.07;;;3.60;;
37407;SDS011;24866;50.248;8.252;2024-02-21T14:09:48;12.85;;;3.67;;
37407;SDS011;24866;50.248;8.252;2024-02-21T14:12:18;10.82;;;3.95;;
37407;SDS011;24866;50.248;8.252;2024-02-21T14:14:51;9.25;;;4.07;;
37407;SDS011;24866;50.248;8.252;2024-02-21T14:17:22;12.43;;;3.72;;
37407;SDS011;24866;50.248;8.252;2024-02-21T14:19:53;9.23;;;3.00;;
37407;SDS011;24866;50.248;8.252;2024-02-21T14:22:23;9.23;;;3.60;;
37407;SDS011;24866;50.248;8.252;2024-02-21T14:24:54;13.88;;;4.32;;
37407;SDS011;24866;50.248;8.252;2024-02-21T14:27:25;12.18;;;3.53;;
37407;SDS011;24866;50.248;8.252;2024-02-21T14:29:58;8.77;;;3.22;;
37407;SDS011;24866;50.248;8.252;2024-02-21T14:32:28;9.02;;;3.28;;
37407;SDS011;24866;50.248;8.252;2024-02-21T14:34:59;11.10;;;3.67;;
37407;SDS011;24866;50.248;8.252;2024-02-21T14:37:29;11.70;;;3.53;;
37407;SDS011;24866;50.248;8.252;2024-02-21T14:40:00;12.02;;;3.75;;
37407;SDS011;24866;50.248;8.252;2024-02-21T14:42:31;12.88;;;3.35;;
37407;SDS011;24866;50.248;8.252;2024-02-21T14:45:04;12.75;;;3.22;;
37407;SDS011;24866;50.248;8.252;2024-02-21T14:47:35;13.32;;;3.00;;
37407;SDS011;24866;50.248;8.252;2024-02-21T14:50:06;12.55;;;3.55;;
37407;SDS011;24866;50.248;8.252;2024-02-21T14:52:36;9.00;;;3.60;;
37407;SDS011;24866;50.248;8.252;2024-02-21T14:55:07;14.32;;;3.67;;
37407;SDS011;24866;50.248;8.252;2024-02-21T14:57:37;10.65;;;3.22;;
37407;SDS011;24866;50.248;8.252;2024-02-21T15:00:10;9.68;;;3.00;;
37407;SDS011;24866;50.248;8.252;2024-02-21T15:05:12;10.77;;;3.40;;